createdAt,value
2022-09-25T00:02:00.465Z,12.10
2022-09-25T00:04:27.103Z,12.10
2022-09-25T00:06:53.763Z,12.00
2022-09-25T00:09:21.025Z,12.00
2022-09-25T00:11:47.716Z,11.90
2022-09-25T00:14:14.509Z,11.90
2022-09-25T00:16:41.147Z,12.00
2022-09-25T00:19:40.850Z,12.00
2022-09-25T00:22:07.566Z,11.90
2022-09-25T00:24:34.811Z,12.00
2022-09-25T00:27:01.741Z,12.00
2022-09-25T00:29:28.641Z,11.90
2022-09-25T00:31:55.553Z,12.00
2022-09-25T00:34:22.132Z,11.90
2022-09-25T00:36:48.673Z,11.90
2022-09-25T00:39:15.266Z,11.90
2022-09-25T00:41:42.559Z,12.00
2022-09-25T00:44:43.280Z,11.90
2022-09-25T00:47:13.006Z,11.90
2022-09-25T00:49:39.718Z,11.90
2022-09-25T00:52:08.477Z,12.00
2022-09-25T00:54:38.866Z,12.00
2022-09-25T00:57:10.516Z,12.00
2022-09-25T00:59:41.249Z,12.00
2022-09-25T01:02:14.113Z,12.10
2022-09-25T01:04:46.077Z,12.10
2022-09-25T01:07:14.817Z,12.10
2022-09-25T01:09:41.719Z,12.10
2022-09-25T01:12:09.402Z,12.10
2022-09-25T01:14:36.827Z,12.00
2022-09-25T01:17:25.451Z,12.00
2022-09-25T01:20:04.018Z,12.00
2022-09-25T01:22:50.847Z,12.00
2022-09-25T01:25:37.729Z,11.90
2022-09-25T01:28:37.982Z,11.90
2022-09-25T01:31:15.478Z,12.00
2022-09-25T01:33:48.296Z,12.00
2022-09-25T01:36:24.078Z,12.00
2022-09-25T01:38:56.779Z,12.10
2022-09-25T01:41:39.264Z,12.00
2022-09-25T01:44:21.084Z,12.00
2022-09-25T01:46:51.724Z,12.00
2022-09-25T01:49:35.961Z,12.00
2022-09-25T01:52:10.785Z,12.00
2022-09-25T01:54:41.923Z,11.90
2022-09-25T01:57:15.540Z,11.90
2022-09-25T01:59:59.675Z,11.80
2022-09-25T02:02:35.134Z,11.90
2022-09-25T02:05:17.832Z,11.90
2022-09-25T02:07:50.785Z,11.90
2022-09-25T02:10:27.079Z,11.90
2022-09-25T02:12:58.266Z,12.00
2022-09-25T02:15:30.157Z,12.00
2022-09-25T02:18:27.862Z,12.00
2022-09-25T02:21:12.943Z,12.10
2022-09-25T02:23:53.968Z,11.90
2022-09-25T02:26:29.155Z,12.00
2022-09-25T02:28:56.469Z,12.00
2022-09-25T02:31:29.915Z,12.00
2022-09-25T02:33:57.691Z,12.00
2022-09-25T02:36:24.737Z,12.00
2022-09-25T02:38:53.791Z,12.00
2022-09-25T02:41:32.173Z,11.90
2022-09-25T02:44:22.244Z,11.90
2022-09-25T02:47:04.927Z,11.80
2022-09-25T02:49:56.894Z,11.80
2022-09-25T02:52:33.228Z,11.80
2022-09-25T02:55:08.763Z,11.90
2022-09-25T02:57:55.907Z,11.90
2022-09-25T03:00:23.667Z,11.90
2022-09-25T03:02:56.733Z,11.90
2022-09-25T03:05:25.214Z,11.90
2022-09-25T03:08:14.132Z,11.90
2022-09-25T03:10:41.890Z,11.90
2022-09-25T03:13:15.345Z,11.90
2022-09-25T03:15:45.357Z,11.90
2022-09-25T03:18:14.119Z,11.90
2022-09-25T03:20:41.202Z,11.90
2022-09-25T03:23:07.761Z,11.80
2022-09-25T03:25:34.470Z,11.80
2022-09-25T03:28:01.317Z,11.80
2022-09-25T03:30:29.258Z,11.80
2022-09-25T03:32:56.043Z,11.90
2022-09-25T03:35:22.946Z,11.90
2022-09-25T03:37:49.744Z,11.90
2022-09-25T03:40:16.459Z,11.90
2022-09-25T03:42:44.009Z,11.90
2022-09-25T03:45:11.438Z,11.90
2022-09-25T03:47:38.296Z,11.90
2022-09-25T03:50:05.219Z,11.90
2022-09-25T03:52:31.919Z,11.90
2022-09-25T03:54:58.515Z,11.90
2022-09-25T03:57:25.815Z,11.80
2022-09-25T03:59:52.780Z,11.90
2022-09-25T04:02:19.620Z,11.80
2022-09-25T04:04:46.418Z,11.90
2022-09-25T04:07:13.104Z,11.90
2022-09-25T04:09:39.812Z,11.90
2022-09-25T04:12:07.354Z,11.90
2022-09-25T04:14:33.938Z,11.90
2022-09-25T04:17:00.643Z,11.90
2022-09-25T04:19:27.233Z,11.90
2022-09-25T04:21:53.809Z,11.80
2022-09-25T04:24:38.914Z,11.80
2022-09-25T04:27:05.613Z,11.80
2022-09-25T04:29:32.351Z,11.80
2022-09-25T04:32:17.552Z,11.80
2022-09-25T04:34:44.857Z,11.80
2022-09-25T04:37:12.047Z,11.80
2022-09-25T04:39:38.711Z,11.80
2022-09-25T04:42:05.706Z,11.80
2022-09-25T04:44:32.251Z,11.80
2022-09-25T04:46:58.919Z,11.80
2022-09-25T04:49:25.493Z,11.80
2022-09-25T04:51:52.074Z,11.80
2022-09-25T04:54:18.660Z,11.80
2022-09-25T04:56:45.241Z,11.80
2022-09-25T04:59:11.847Z,11.80
2022-09-25T05:01:39.027Z,11.80
2022-09-25T05:04:12.883Z,11.80
2022-09-25T05:06:39.854Z,11.70
2022-09-25T05:09:06.526Z,11.70
2022-09-25T05:11:33.270Z,11.70
2022-09-25T05:14:01.144Z,11.70
2022-09-25T05:16:29.065Z,11.70
2022-09-25T05:18:56.460Z,11.60
2022-09-25T05:21:23.285Z,11.70
2022-09-25T05:23:50.574Z,11.70
2022-09-25T05:26:17.471Z,11.70
2022-09-25T05:28:44.145Z,11.70
2022-09-25T05:31:10.882Z,11.70
2022-09-25T05:33:37.470Z,11.70
2022-09-25T05:36:07.885Z,11.70
2022-09-25T05:38:36.539Z,11.80
2022-09-25T05:41:05.253Z,11.70
2022-09-25T05:43:33.509Z,11.70
2022-09-25T05:46:00.549Z,11.70
2022-09-25T05:48:27.222Z,11.80
2022-09-25T05:50:54.851Z,11.70
2022-09-25T05:53:21.578Z,11.80
2022-09-25T05:55:57.978Z,11.70
2022-09-25T05:58:29.211Z,11.70
2022-09-25T06:00:56.105Z,11.70
2022-09-25T06:03:22.908Z,11.80
2022-09-25T06:05:49.637Z,11.80
2022-09-25T06:08:16.256Z,11.70
2022-09-25T06:10:43.013Z,11.70
2022-09-25T06:13:09.594Z,11.80
2022-09-25T06:15:38.735Z,11.80
2022-09-25T06:18:06.717Z,11.80
2022-09-25T06:20:33.306Z,11.80
2022-09-25T06:23:03.560Z,11.80
2022-09-25T06:25:36.490Z,11.80
2022-09-25T06:28:03.504Z,11.80
2022-09-25T06:30:34.311Z,11.80
2022-09-25T06:33:01.314Z,11.80
2022-09-25T06:35:29.389Z,11.80
2022-09-25T06:37:59.877Z,11.80
2022-09-25T06:40:28.745Z,11.80
2022-09-25T06:42:59.544Z,11.90
2022-09-25T06:45:28.052Z,11.90
2022-09-25T06:47:58.013Z,11.90
2022-09-25T06:50:31.579Z,12.00
2022-09-25T06:52:59.778Z,11.90
2022-09-25T06:55:27.891Z,12.00
2022-09-25T06:57:54.527Z,12.00
2022-09-25T07:00:21.347Z,12.00
2022-09-25T07:03:06.999Z,12.00
2022-09-25T07:05:34.493Z,12.00
2022-09-25T07:08:01.674Z,11.90
2022-09-25T07:10:28.343Z,11.90
2022-09-25T07:12:55.058Z,11.90
2022-09-25T07:15:22.671Z,11.90
2022-09-25T07:17:49.303Z,11.90
2022-09-25T07:20:16.777Z,12.00
2022-09-25T07:22:43.508Z,12.00
2022-09-25T07:25:12.601Z,12.00
2022-09-25T07:27:39.311Z,12.00
2022-09-25T07:30:06.720Z,12.00
2022-09-25T07:32:33.534Z,12.00
2022-09-25T07:35:00.190Z,12.00
2022-09-25T07:37:26.815Z,12.00
2022-09-25T07:39:53.375Z,12.10
2022-09-25T07:42:19.956Z,12.10
2022-09-25T07:44:48.720Z,12.10
2022-09-25T07:47:17.003Z,12.10
2022-09-25T07:49:43.602Z,12.20
2022-09-25T07:52:10.167Z,12.20
2022-09-25T07:54:37.716Z,12.20
2022-09-25T07:57:04.310Z,12.20
2022-09-25T07:59:30.880Z,12.20
2022-09-25T08:01:58.164Z,12.20
2022-09-25T08:04:24.923Z,12.20
2022-09-25T08:06:51.601Z,12.20
2022-09-25T08:09:18.263Z,12.30
2022-09-25T08:11:44.816Z,12.40
2022-09-25T08:14:14.264Z,12.40
2022-09-25T08:16:41.068Z,12.40
2022-09-25T08:19:07.667Z,12.30
2022-09-25T08:21:34.812Z,12.40
2022-09-25T08:24:01.651Z,12.40
2022-09-25T08:26:29.238Z,12.40
2022-09-25T08:28:56.862Z,12.50
2022-09-25T08:31:23.569Z,12.40
2022-09-25T08:33:50.562Z,12.50
2022-09-25T08:36:17.924Z,12.50
2022-09-25T08:38:45.304Z,12.40
2022-09-25T08:41:23.494Z,12.40
2022-09-25T08:44:10.730Z,12.40
2022-09-25T08:47:03.967Z,12.40
2022-09-25T08:49:36.907Z,12.30
2022-09-25T08:52:08.223Z,12.40
2022-09-25T08:54:35.893Z,12.40
2022-09-25T08:57:27.513Z,12.40
2022-09-25T09:00:02.175Z,12.30
2022-09-25T09:02:40.361Z,12.40
2022-09-25T09:05:19.339Z,12.40
2022-09-25T09:08:00.433Z,12.40
2022-09-25T09:10:30.742Z,12.40
2022-09-25T09:13:24.523Z,12.40
2022-09-25T09:16:16.079Z,12.40
2022-09-25T09:18:43.692Z,12.30
2022-09-25T09:21:38.925Z,12.30
2022-09-25T09:24:06.115Z,12.30
2022-09-25T09:26:57.596Z,12.30
2022-09-25T09:29:47.685Z,12.40
2022-09-25T09:32:34.482Z,12.40
2022-09-25T09:35:34.053Z,12.40
2022-09-25T09:38:19.075Z,12.50
2022-09-25T09:41:04.110Z,12.40
2022-09-25T09:44:12.265Z,12.40
2022-09-25T09:47:04.024Z,12.40
2022-09-25T09:49:39.435Z,12.40
2022-09-25T09:52:21.112Z,12.40
2022-09-25T09:55:07.515Z,12.40
2022-09-25T09:57:44.307Z,12.40
2022-09-25T10:00:16.926Z,12.40
2022-09-25T10:02:52.910Z,12.40
2022-09-25T10:05:27.689Z,12.40
2022-09-25T10:07:54.741Z,12.40
2022-09-25T10:10:27.583Z,12.40
2022-09-25T10:12:54.980Z,12.30
2022-09-25T10:15:27.996Z,12.40
2022-09-25T10:17:57.550Z,12.40
2022-09-25T10:20:26.927Z,12.50
2022-09-25T10:22:58.389Z,12.50
2022-09-25T10:25:39.657Z,12.50
2022-09-25T10:28:23.059Z,12.70
2022-09-25T10:30:52.129Z,12.80
2022-09-25T10:33:25.600Z,12.80
2022-09-25T10:35:54.737Z,12.90
2022-09-25T10:38:53.399Z,12.80
2022-09-25T10:41:25.852Z,12.80
2022-09-25T10:44:00.109Z,12.80
2022-09-25T10:46:50.783Z,12.70
2022-09-25T10:49:40.771Z,12.70
2022-09-25T10:52:09.637Z,12.70
2022-09-25T10:54:43.692Z,12.50
2022-09-25T10:57:38.317Z,12.50
2022-09-25T11:00:19.447Z,12.60
2022-09-25T11:02:47.868Z,12.60
2022-09-25T11:05:18.764Z,12.70
2022-09-25T11:07:52.417Z,12.60
2022-09-25T11:10:31.191Z,12.60
2022-09-25T11:12:58.593Z,12.50
2022-09-25T11:15:27.667Z,12.50
2022-09-25T11:17:56.916Z,12.40
2022-09-25T11:20:30.114Z,12.30
2022-09-25T11:23:21.555Z,12.40
2022-09-25T11:26:08.766Z,12.40
2022-09-25T11:28:50.656Z,12.40
2022-09-25T11:31:37.705Z,12.40
2022-09-25T11:34:34.584Z,12.40
2022-09-25T11:37:13.451Z,12.40
2022-09-25T11:40:06.718Z,12.30
2022-09-25T11:42:55.485Z,12.30
2022-09-25T11:45:36.397Z,12.20
2022-09-25T11:48:19.681Z,12.20
2022-09-25T11:51:11.700Z,12.10
2022-09-25T11:53:53.189Z,12.10
2022-09-25T11:56:32.659Z,12.10
2022-09-25T11:59:23.132Z,12.10
2022-09-25T12:01:58.130Z,12.10
2022-09-25T12:04:30.814Z,12.10
2022-09-25T12:07:10.465Z,12.10
2022-09-25T12:10:04.112Z,12.00
2022-09-25T12:12:45.140Z,12.00
2022-09-25T12:15:24.072Z,12.00
2022-09-25T12:18:29.397Z,12.00
2022-09-25T12:21:10.514Z,12.00
2022-09-25T12:23:41.836Z,12.00
2022-09-25T12:26:15.047Z,12.00
2022-09-25T12:28:56.408Z,12.00
2022-09-25T12:31:39.537Z,12.00
2022-09-25T12:34:37.692Z,12.00
2022-09-25T12:37:40.224Z,12.00
2022-09-25T12:40:22.900Z,12.00
2022-09-25T12:43:28.239Z,12.00
2022-09-25T12:46:01.935Z,12.00
2022-09-25T12:48:44.065Z,12.00
2022-09-25T12:51:19.806Z,12.00
2022-09-25T12:53:59.991Z,12.10
2022-09-25T12:56:33.778Z,12.10
2022-09-25T12:59:31.844Z,12.00
2022-09-25T13:02:27.488Z,12.00
2022-09-25T13:05:09.204Z,12.00
2022-09-25T13:07:49.313Z,12.00
2022-09-25T13:10:41.045Z,12.00
2022-09-25T13:13:19.373Z,12.00
2022-09-25T13:15:56.147Z,12.00
2022-09-25T13:18:24.925Z,12.00
2022-09-25T13:21:31.522Z,12.00
2022-09-25T13:23:59.561Z,12.00
2022-09-25T13:26:27.127Z,12.00
2022-09-25T13:29:04.404Z,12.00
2022-09-25T13:31:37.183Z,11.90
2022-09-25T13:34:13.724Z,12.00
2022-09-25T13:36:47.560Z,12.00
2022-09-25T13:39:49.545Z,12.00
2022-09-25T13:42:16.313Z,12.00
2022-09-25T13:44:43.432Z,12.00
2022-09-25T13:47:25.231Z,12.00
2022-09-25T13:49:53.812Z,11.90
2022-09-25T13:52:36.564Z,11.90
2022-09-25T13:55:21.285Z,12.00
2022-09-25T13:58:00.102Z,12.00
2022-09-25T14:00:36.127Z,12.00
2022-09-25T14:03:03.161Z,12.00
2022-09-25T14:05:36.591Z,12.00
2022-09-25T14:08:08.054Z,12.00
2022-09-25T14:10:35.829Z,12.00
2022-09-25T14:13:06.893Z,12.00
2022-09-25T14:15:36.431Z,12.00
2022-09-25T14:18:14.587Z,12.00
2022-09-25T14:20:44.807Z,12.10
2022-09-25T14:23:14.454Z,12.00
2022-09-25T14:25:44.564Z,12.10
2022-09-25T14:28:31.510Z,12.10
2022-09-25T14:31:19.156Z,12.10
2022-09-25T14:33:58.116Z,12.00
2022-09-25T14:37:03.185Z,12.00
2022-09-25T14:39:48.024Z,12.10
2022-09-25T14:42:30.533Z,12.10
2022-09-25T14:45:14.362Z,12.10
2022-09-25T14:47:45.099Z,12.10
2022-09-25T14:50:37.449Z,12.10
2022-09-25T14:53:10.114Z,12.20
2022-09-25T14:55:46.275Z,12.20
2022-09-25T14:58:18.671Z,12.20
2022-09-25T15:00:48.450Z,12.20
2022-09-25T15:03:18.819Z,12.20
2022-09-25T15:05:48.193Z,12.10
2022-09-25T15:08:34.582Z,12.10
2022-09-25T15:11:04.093Z,12.20
2022-09-25T15:13:33.577Z,12.20
2022-09-25T15:16:19.831Z,12.20
2022-09-25T15:18:54.243Z,12.30
2022-09-25T15:21:32.248Z,12.30
2022-09-25T15:24:17.311Z,12.30
2022-09-25T15:26:49.445Z,12.30
2022-09-25T15:29:20.925Z,12.30
2022-09-25T15:31:51.239Z,12.40
2022-09-25T15:34:24.705Z,12.40
2022-09-25T15:36:52.384Z,12.40
2022-09-25T15:39:27.643Z,12.50
2022-09-25T15:41:54.389Z,12.50
2022-09-25T15:44:26.250Z,12.50
2022-09-25T15:46:58.527Z,12.50
2022-09-25T15:49:38.726Z,12.40
2022-09-25T15:52:20.877Z,12.40
2022-09-25T15:54:49.125Z,12.40
2022-09-25T15:57:24.802Z,12.40
2022-09-25T16:00:10.897Z,12.40
2022-09-25T16:03:00.253Z,12.40
2022-09-25T16:05:35.837Z,12.40
2022-09-25T16:08:32.067Z,12.30
2022-09-25T16:11:16.574Z,12.30
2022-09-25T16:13:47.588Z,12.30
2022-09-25T16:16:31.787Z,12.30
2022-09-25T16:19:21.480Z,12.30
2022-09-25T16:21:48.613Z,12.30
2022-09-25T16:24:21.655Z,12.30
2022-09-25T16:26:54.942Z,12.20
2022-09-25T16:29:33.929Z,12.20
2022-09-25T16:32:08.051Z,12.20
2022-09-25T16:34:37.693Z,12.20
2022-09-25T16:37:06.644Z,12.20
2022-09-25T16:39:36.551Z,12.20
2022-09-25T16:42:26.724Z,12.20
2022-09-25T16:45:19.398Z,12.10
2022-09-25T16:47:49.534Z,12.20
2022-09-25T16:50:17.300Z,12.20
2022-09-25T16:52:44.647Z,12.10
2022-09-25T16:55:27.433Z,12.10
2022-09-25T16:57:55.321Z,12.10
2022-09-25T17:00:27.587Z,12.10
2022-09-25T17:02:54.845Z,12.10
2022-09-25T17:05:28.255Z,12.10
2022-09-25T17:07:56.847Z,12.10
2022-09-25T17:10:29.279Z,12.10
2022-09-25T17:12:59.186Z,12.10
2022-09-25T17:15:33.571Z,12.10
2022-09-25T17:18:02.119Z,12.10
2022-09-25T17:20:33.989Z,12.10
2022-09-25T17:23:00.584Z,12.10
2022-09-25T17:25:50.294Z,12.00
2022-09-25T17:28:17.130Z,12.00
2022-09-25T17:30:44.780Z,11.90
2022-09-25T17:33:17.375Z,11.90
2022-09-25T17:36:05.007Z,11.90
2022-09-25T17:38:34.583Z,11.80
2022-09-25T17:41:19.589Z,11.80
2022-09-25T17:43:46.519Z,11.80
2022-09-25T17:46:18.943Z,11.80
2022-09-25T17:48:50.159Z,11.80
2022-09-25T17:51:25.076Z,11.80
2022-09-25T17:53:56.248Z,11.70
2022-09-25T17:56:24.669Z,11.80
2022-09-25T17:58:57.206Z,11.70
2022-09-25T18:01:26.991Z,11.80
2022-09-25T18:03:56.699Z,11.80
2022-09-25T18:06:24.729Z,11.70
2022-09-25T18:08:52.697Z,11.80
2022-09-25T18:11:19.697Z,11.70
2022-09-25T18:13:46.544Z,11.80
2022-09-25T18:16:18.758Z,11.80
2022-09-25T18:19:04.485Z,11.80
2022-09-25T18:21:49.867Z,11.80
2022-09-25T18:24:16.612Z,11.90
2022-09-25T18:26:44.694Z,11.90
2022-09-25T18:29:16.882Z,11.90
2022-09-25T18:31:44.428Z,11.80
2022-09-25T18:34:11.137Z,11.80
2022-09-25T18:36:38.099Z,11.90
2022-09-25T18:39:04.939Z,11.80
2022-09-25T18:41:31.678Z,11.80
2022-09-25T18:43:58.340Z,11.80
2022-09-25T18:46:25.010Z,11.80
2022-09-25T18:48:53.489Z,11.80
2022-09-25T18:51:20.181Z,11.70
2022-09-25T18:53:51.728Z,11.70
2022-09-25T18:56:18.672Z,11.70
2022-09-25T18:58:45.438Z,11.70
2022-09-25T19:01:12.122Z,11.60
2022-09-25T19:03:41.007Z,11.60
2022-09-25T19:06:07.729Z,11.60
2022-09-25T19:08:36.076Z,11.50
2022-09-25T19:11:02.743Z,11.40
2022-09-25T19:13:30.298Z,11.40
2022-09-25T19:15:58.919Z,11.30
2022-09-25T19:18:25.662Z,11.20
2022-09-25T19:20:54.448Z,11.10
2022-09-25T19:23:22.491Z,11.10
2022-09-25T19:25:59.019Z,11.00
2022-09-25T19:28:26.645Z,11.00
2022-09-25T19:31:00.308Z,10.80
2022-09-25T19:33:30.711Z,10.80
2022-09-25T19:35:59.399Z,10.70
2022-09-25T19:38:26.988Z,10.70
2022-09-25T19:40:53.631Z,10.60
2022-09-25T19:43:20.350Z,10.60
2022-09-25T19:45:51.689Z,10.50
2022-09-25T19:48:18.437Z,10.50
2022-09-25T19:50:45.210Z,10.40
2022-09-25T19:53:13.044Z,10.40
2022-09-25T19:55:43.433Z,10.40
2022-09-25T19:58:11.016Z,10.40
2022-09-25T20:00:41.926Z,10.40
2022-09-25T20:03:09.885Z,10.40
2022-09-25T20:05:41.388Z,10.40
2022-09-25T20:08:08.947Z,10.40
2022-09-25T20:10:36.932Z,10.50
2022-09-25T20:13:04.117Z,10.50
2022-09-25T20:15:32.217Z,10.50
2022-09-25T20:17:59.514Z,10.50
2022-09-25T20:20:29.506Z,10.50
2022-09-25T20:22:56.957Z,10.40
2022-09-25T20:25:24.927Z,10.50
2022-09-25T20:27:55.017Z,10.50
2022-09-25T20:30:24.364Z,10.60
2022-09-25T20:32:52.219Z,10.60
2022-09-25T20:35:20.016Z,10.60
2022-09-25T20:37:47.661Z,10.70
2022-09-25T20:40:15.408Z,10.60
2022-09-25T20:42:42.555Z,10.60
2022-09-25T20:45:10.266Z,10.70
2022-09-25T20:47:37.074Z,10.60
2022-09-25T20:50:04.941Z,10.60
2022-09-25T20:52:32.862Z,10.60
2022-09-25T20:54:59.801Z,10.70
2022-09-25T20:57:26.360Z,10.70
2022-09-25T20:59:53.026Z,10.70
2022-09-25T21:02:19.729Z,10.70
2022-09-25T21:04:46.534Z,10.80
2022-09-25T21:07:16.969Z,10.80
2022-09-25T21:09:44.087Z,10.80
2022-09-25T21:12:10.628Z,10.80
2022-09-25T21:14:37.877Z,10.80
2022-09-25T21:17:04.731Z,10.80
2022-09-25T21:19:31.989Z,10.70
2022-09-25T21:21:58.708Z,10.60
2022-09-25T21:24:25.347Z,10.50
2022-09-25T21:26:51.991Z,10.50
2022-09-25T21:29:18.938Z,10.30
2022-09-25T21:31:49.852Z,10.30
2022-09-25T21:34:18.270Z,10.20
2022-09-25T21:36:45.548Z,10.10
2022-09-25T21:39:13.267Z,10.10
2022-09-25T21:41:40.371Z,10.00
2022-09-25T21:44:12.025Z,9.90
2022-09-25T21:46:39.010Z,9.90
2022-09-25T21:49:07.101Z,9.80
2022-09-25T21:51:38.752Z,9.80
2022-09-25T21:54:07.604Z,9.70
2022-09-25T21:56:34.369Z,9.60
2022-09-25T21:59:08.431Z,9.60
2022-09-25T22:01:42.918Z,9.50
2022-09-25T22:04:12.827Z,9.50
2022-09-25T22:06:40.791Z,9.40
2022-09-25T22:09:20.217Z,9.40
2022-09-25T22:11:47.859Z,9.30
2022-09-25T22:14:16.578Z,9.20
2022-09-25T22:16:45.276Z,9.20
2022-09-25T22:19:21.750Z,9.20
2022-09-25T22:21:50.025Z,9.20
2022-09-25T22:24:16.920Z,9.20
2022-09-25T22:26:46.196Z,9.20
2022-09-25T22:29:13.693Z,9.30
2022-09-25T22:31:43.650Z,9.30
2022-09-25T22:34:25.526Z,9.20
2022-09-25T22:36:58.674Z,9.40
2022-09-25T22:39:26.390Z,9.40
2022-09-25T22:41:54.468Z,9.40
2022-09-25T22:44:21.711Z,9.50
2022-09-25T22:46:48.444Z,9.50
2022-09-25T22:49:15.061Z,9.50
2022-09-25T22:51:41.924Z,9.50
2022-09-25T22:54:10.534Z,9.50
2022-09-25T22:56:37.124Z,9.60
2022-09-25T22:59:08.048Z,9.60
2022-09-25T23:02:06.808Z,9.70
2022-09-25T23:04:33.418Z,9.70
2022-09-25T23:07:00.068Z,9.80
2022-09-25T23:09:26.928Z,9.80
2022-09-25T23:11:55.101Z,9.80
2022-09-25T23:14:25.189Z,9.70
2022-09-25T23:16:53.406Z,9.80
2022-09-25T23:19:21.390Z,9.80
2022-09-25T23:21:48.702Z,9.80
2022-09-25T23:24:17.471Z,9.80
2022-09-25T23:26:45.705Z,9.90
2022-09-25T23:29:14.623Z,9.90
2022-09-25T23:31:42.235Z,9.90
2022-09-25T23:34:09.788Z,9.90
2022-09-25T23:36:37.334Z,10.00
2022-09-25T23:39:04.930Z,10.00
2022-09-25T23:41:36.239Z,10.00
2022-09-25T23:44:04.993Z,10.00
2022-09-25T23:46:34.311Z,10.00
2022-09-25T23:49:01.631Z,9.90
2022-09-25T23:51:28.596Z,9.90
2022-09-25T23:53:57.723Z,9.80
2022-09-25T23:56:27.043Z,9.70
2022-09-25T23:58:55.936Z,9.60
